createdAt,value
2018-11-12T00:00:40.991Z,6.30
2018-11-12T00:03:08.447Z,7.00
2018-11-12T00:05:35.868Z,7.20
2018-11-12T00:08:03.395Z,6.83
2018-11-12T00:10:30.857Z,6.33
2018-11-12T00:12:58.595Z,7.07
2018-11-12T00:15:25.984Z,6.70
2018-11-12T00:17:53.410Z,7.20
2018-11-12T00:20:20.864Z,6.93
2018-11-12T00:22:49.177Z,7.20
2018-11-12T00:25:16.707Z,6.50
2018-11-12T00:27:44.140Z,6.70
2018-11-12T00:30:15.096Z,7.50
2018-11-12T00:32:43.385Z,7.90
2018-11-12T00:35:11.266Z,7.23
2018-11-12T00:37:39.277Z,7.50
2018-11-12T00:40:07.531Z,7.10
2018-11-12T00:42:35.018Z,7.77
2018-11-12T00:45:02.673Z,7.33
2018-11-12T00:47:30.079Z,8.73
2018-11-12T00:49:57.505Z,7.00
2018-11-12T00:52:25.227Z,7.47
2018-11-12T00:54:52.648Z,9.57
2018-11-12T00:57:20.064Z,7.17
2018-11-12T00:59:47.507Z,7.17
2018-11-12T01:02:15.040Z,6.80
2018-11-12T01:04:42.457Z,6.37
2018-11-12T01:07:09.923Z,7.23
2018-11-12T01:09:37.335Z,8.03
2018-11-12T01:12:04.890Z,5.90
2018-11-12T01:14:32.332Z,6.87
2018-11-12T01:16:59.744Z,6.00
2018-11-12T01:19:27.164Z,5.37
2018-11-12T01:21:54.614Z,5.60
2018-11-12T01:24:22.027Z,5.73
2018-11-12T01:26:49.432Z,5.83
2018-11-12T01:29:17.157Z,5.47
2018-11-12T01:31:44.598Z,5.60
2018-11-12T01:34:12.011Z,5.40
2018-11-12T01:36:39.491Z,5.40
2018-11-12T01:39:07.449Z,4.77
2018-11-12T01:41:34.898Z,5.03
2018-11-12T01:44:02.355Z,4.30
2018-11-12T01:46:29.819Z,3.70
2018-11-12T01:48:57.340Z,4.43
2018-11-12T01:51:24.730Z,3.90
2018-11-12T01:53:52.168Z,4.67
2018-11-12T01:56:19.621Z,4.20
2018-11-12T01:58:47.065Z,4.27
2018-11-12T02:01:14.492Z,3.83
2018-11-12T02:03:41.935Z,4.10
2018-11-12T02:06:09.354Z,3.30
2018-11-12T02:08:36.893Z,3.97
2018-11-12T02:11:04.385Z,3.57
2018-11-12T02:13:31.785Z,3.90
2018-11-12T02:15:59.321Z,3.43
2018-11-12T02:18:26.720Z,3.73
2018-11-12T02:20:54.162Z,3.50
2018-11-12T02:23:21.579Z,3.30
2018-11-12T02:25:49.031Z,3.50
2018-11-12T02:28:16.476Z,3.27
2018-11-12T02:30:46.865Z,2.93
2018-11-12T02:33:14.637Z,3.87
2018-11-12T02:35:42.067Z,3.33
2018-11-12T02:38:09.507Z,3.57
2018-11-12T02:40:37.734Z,3.70
2018-11-12T02:43:05.255Z,3.30
2018-11-12T02:45:32.725Z,3.80
2018-11-12T02:48:00.132Z,2.80
2018-11-12T02:50:27.804Z,3.70
2018-11-12T02:52:55.232Z,3.70
2018-11-12T02:55:22.725Z,3.73
2018-11-12T02:57:50.233Z,3.10
2018-11-12T03:00:19.071Z,3.23
2018-11-12T03:02:46.512Z,3.60
2018-11-12T03:05:14.090Z,3.10
2018-11-12T03:07:41.731Z,3.43
2018-11-12T03:10:10.068Z,3.60
2018-11-12T03:12:37.496Z,4.10
2018-11-12T03:15:05.563Z,3.77
2018-11-12T03:17:33.014Z,3.60
2018-11-12T03:20:00.491Z,3.90
2018-11-12T03:22:28.052Z,3.90
2018-11-12T03:24:55.490Z,3.67
2018-11-12T03:27:22.890Z,3.83
2018-11-12T03:29:50.331Z,4.33
2018-11-12T03:32:17.763Z,4.77
2018-11-12T03:34:45.255Z,4.07
2018-11-12T03:37:12.716Z,4.67
2018-11-12T03:39:40.150Z,5.03
2018-11-12T03:42:07.539Z,4.73
2018-11-12T03:44:34.958Z,5.27
2018-11-12T03:47:02.353Z,4.90
2018-11-12T03:49:29.757Z,4.77
2018-11-12T03:51:57.350Z,5.30
2018-11-12T03:54:24.808Z,5.10
2018-11-12T03:56:52.221Z,5.87
2018-11-12T03:59:19.760Z,5.37
2018-11-12T04:01:47.168Z,5.60
2018-11-12T04:04:15.665Z,6.13
2018-11-12T04:06:43.736Z,6.53
2018-11-12T04:09:11.738Z,6.73
2018-11-12T04:11:40.476Z,7.63
2018-11-12T04:14:08.896Z,7.10
2018-11-12T04:16:36.305Z,7.07
2018-11-12T04:19:03.927Z,7.03
2018-11-12T04:21:31.344Z,6.60
2018-11-12T04:23:58.846Z,7.73
2018-11-12T04:26:26.526Z,7.87
2018-11-12T04:28:53.958Z,7.40
2018-11-12T04:31:21.387Z,6.90
2018-11-12T04:33:49.150Z,7.57
2018-11-12T04:36:16.568Z,8.47
2018-11-12T04:38:44.011Z,7.70
2018-11-12T04:41:11.717Z,6.07
2018-11-12T04:43:39.187Z,7.17
2018-11-12T04:46:06.661Z,6.70
2018-11-12T04:48:34.106Z,6.90
2018-11-12T04:51:01.566Z,6.43
2018-11-12T04:53:29.044Z,7.07
2018-11-12T04:55:56.385Z,5.70
2018-11-12T04:58:23.839Z,6.17
2018-11-12T05:00:51.234Z,6.73
2018-11-12T05:03:18.686Z,6.07
2018-11-12T05:05:46.197Z,6.00
2018-11-12T05:08:13.594Z,5.80
2018-11-12T05:10:41.002Z,6.03
2018-11-12T05:13:08.539Z,5.40
2018-11-12T05:15:35.972Z,6.50
2018-11-12T05:18:03.402Z,5.73
2018-11-12T05:20:31.100Z,6.93
2018-11-12T05:22:58.586Z,5.60
2018-11-12T05:25:26.004Z,6.50
2018-11-12T05:27:53.443Z,6.23
2018-11-12T05:30:22.086Z,6.47
2018-11-12T05:32:49.504Z,6.17
2018-11-12T05:35:18.177Z,6.47
2018-11-12T05:37:45.958Z,6.97
2018-11-12T05:40:15.707Z,6.30
2018-11-12T05:42:43.516Z,6.80
2018-11-12T05:45:11.234Z,7.07
2018-11-12T05:47:38.817Z,7.27
2018-11-12T05:50:08.749Z,7.33
2018-11-12T05:52:36.187Z,7.70
2018-11-12T05:55:03.852Z,8.30
2018-11-12T05:57:31.270Z,7.07
2018-11-12T05:59:58.897Z,8.07
2018-11-12T06:02:26.375Z,8.53
2018-11-12T06:04:53.844Z,8.63
2018-11-12T06:07:21.257Z,8.53
2018-11-12T06:09:48.657Z,8.27
2018-11-12T06:12:16.102Z,7.67
2018-11-12T06:14:43.551Z,7.37
2018-11-12T06:17:11.025Z,7.87
2018-11-12T06:19:38.442Z,8.83
2018-11-12T06:22:05.892Z,8.43
2018-11-12T06:24:33.338Z,8.63
2018-11-12T06:27:00.765Z,8.70
2018-11-12T06:29:28.208Z,8.63
2018-11-12T06:31:55.643Z,9.17
2018-11-12T06:34:23.092Z,9.33
2018-11-12T06:36:50.856Z,7.10
2018-11-12T06:39:18.232Z,7.63
2018-11-12T06:41:45.687Z,7.47
2018-11-12T06:44:13.151Z,8.80
2018-11-12T06:46:40.721Z,9.47
2018-11-12T06:49:08.145Z,9.50
2018-11-12T06:51:35.809Z,9.57
2018-11-12T06:54:03.284Z,11.77
2018-11-12T06:56:30.700Z,10.90
2018-11-12T06:58:58.227Z,11.40
2018-11-12T07:01:25.664Z,10.13
2018-11-12T07:03:53.137Z,8.77
2018-11-12T07:06:20.625Z,10.20
2018-11-12T07:08:48.038Z,8.97
2018-11-12T07:11:15.465Z,8.40
2018-11-12T07:13:42.895Z,8.87
2018-11-12T07:16:10.389Z,10.30
2018-11-12T07:18:37.953Z,9.70
2018-11-12T07:21:05.398Z,10.47
2018-11-12T07:23:33.077Z,9.87
2018-11-12T07:26:00.561Z,7.73
2018-11-12T07:28:28.004Z,8.50
2018-11-12T07:30:55.539Z,9.03
2018-11-12T07:33:22.897Z,7.87
2018-11-12T07:35:50.323Z,7.20
2018-11-12T07:38:17.823Z,8.50
2018-11-12T07:40:45.241Z,10.20
2018-11-12T07:43:12.700Z,9.63
2018-11-12T07:45:40.158Z,10.70
2018-11-12T07:48:07.607Z,9.67
2018-11-12T07:50:35.034Z,9.57
2018-11-12T07:53:02.508Z,9.63
2018-11-12T07:55:29.932Z,10.23
2018-11-12T07:57:58.408Z,10.40
2018-11-12T08:00:33.502Z,9.03
2018-11-12T08:03:04.003Z,9.07
2018-11-12T08:05:31.604Z,9.13
2018-11-12T08:07:59.353Z,10.40
2018-11-12T08:10:26.791Z,9.00
2018-11-12T08:12:54.221Z,9.80
2018-11-12T08:15:21.660Z,8.40
2018-11-12T08:17:49.912Z,10.43
2018-11-12T08:20:22.958Z,9.17
2018-11-12T08:22:50.991Z,9.10
2018-11-12T08:25:18.436Z,9.13
2018-11-12T08:27:46.287Z,9.40
2018-11-12T08:30:16.204Z,10.53
2018-11-12T08:32:44.474Z,11.27
2018-11-12T08:35:12.594Z,10.30
2018-11-12T08:37:40.038Z,10.83
2018-11-12T08:40:09.374Z,9.77
2018-11-12T08:42:36.835Z,8.43
2018-11-12T08:45:05.171Z,9.13
2018-11-12T08:47:32.673Z,9.60
2018-11-12T08:50:00.200Z,10.17
2018-11-12T08:52:27.563Z,8.80
2018-11-12T08:54:54.988Z,9.97
2018-11-12T08:57:22.483Z,9.43
2018-11-12T08:59:49.967Z,8.97
2018-11-12T09:02:17.913Z,8.50
2018-11-12T09:04:45.347Z,8.67
2018-11-12T09:07:12.940Z,9.07
2018-11-12T09:09:40.222Z,9.87
2018-11-12T09:12:07.680Z,10.33
2018-11-12T09:14:35.126Z,9.67
2018-11-12T09:17:02.569Z,9.60
2018-11-12T09:19:30.345Z,8.23
2018-11-12T09:21:58.310Z,6.87
2018-11-12T09:24:25.863Z,5.50
2018-11-12T09:26:53.286Z,6.23
2018-11-12T09:29:20.762Z,6.70
2018-11-12T09:31:48.168Z,7.00
2018-11-12T09:34:15.622Z,5.10
2018-11-12T09:36:43.178Z,4.37
2018-11-12T09:39:10.976Z,2.50
2018-11-12T09:41:38.429Z,1.90
2018-11-12T09:44:05.866Z,1.80
2018-11-12T09:46:33.273Z,1.73
2018-11-12T09:49:00.728Z,1.27
2018-11-12T09:51:28.204Z,1.07
2018-11-12T09:53:55.861Z,1.33
2018-11-12T09:56:24.128Z,1.50
2018-11-12T09:58:51.570Z,2.80
2018-11-12T10:01:22.277Z,3.33
2018-11-12T10:03:50.952Z,3.70
2018-11-12T10:06:18.743Z,3.40
2018-11-12T10:08:46.344Z,3.67
2018-11-12T10:11:14.902Z,3.80
2018-11-12T10:13:41.506Z,3.10
2018-11-12T10:16:10.142Z,3.10
2018-11-12T10:18:34.462Z,3.63
2018-11-12T10:21:01.898Z,3.60
2018-11-12T10:23:29.581Z,2.63
2018-11-12T10:25:57.065Z,2.87
2018-11-12T10:28:24.494Z,3.60
2018-11-12T10:30:51.918Z,3.87
2018-11-12T10:33:19.535Z,4.30
2018-11-12T10:35:46.989Z,4.63
2018-11-12T10:38:14.399Z,4.30
2018-11-12T10:40:41.900Z,3.87
2018-11-12T10:43:09.331Z,3.73
2018-11-12T10:45:36.756Z,3.40
2018-11-12T10:48:04.431Z,4.43
2018-11-12T10:50:32.204Z,3.83
2018-11-12T10:52:59.720Z,3.90
2018-11-12T10:55:27.328Z,3.70
2018-11-12T10:57:54.754Z,5.33
2018-11-12T11:00:28.378Z,5.63
2018-11-12T11:03:02.090Z,5.90
2018-11-12T11:05:29.544Z,7.17
2018-11-12T11:07:57.038Z,7.90
2018-11-12T11:10:25.792Z,9.00
2018-11-12T11:12:53.758Z,8.97
2018-11-12T11:15:21.354Z,9.03
2018-11-12T11:17:48.745Z,9.53
2018-11-12T11:20:16.169Z,9.73
2018-11-12T11:22:43.901Z,10.27
2018-11-12T11:25:11.336Z,10.70
2018-11-12T11:27:38.769Z,8.90
2018-11-12T11:30:09.098Z,9.20
2018-11-12T11:32:36.540Z,7.90
2018-11-12T11:35:04.413Z,6.50
2018-11-12T11:37:31.812Z,7.63
2018-11-12T11:39:59.434Z,6.60
2018-11-12T11:42:26.895Z,6.30
2018-11-12T11:44:54.306Z,4.93
2018-11-12T11:47:21.857Z,3.37
2018-11-12T11:49:49.266Z,3.47
2018-11-12T11:52:16.670Z,2.70
2018-11-12T11:54:44.100Z,3.97
2018-11-12T11:57:11.953Z,3.10
2018-11-12T11:59:39.329Z,3.93
2018-11-12T12:02:06.923Z,3.03
2018-11-12T12:04:34.301Z,2.70
2018-11-12T12:07:01.753Z,2.67
2018-11-12T12:09:29.304Z,3.10
2018-11-12T12:11:56.746Z,2.60
2018-11-12T12:14:24.192Z,3.20
2018-11-12T12:16:51.699Z,3.20
2018-11-12T12:19:19.283Z,2.90
2018-11-12T12:21:47.412Z,3.53
2018-11-12T12:24:15.073Z,3.60
2018-11-12T12:26:42.498Z,3.20
2018-11-12T12:29:09.918Z,3.17
2018-11-12T12:31:37.369Z,2.60
2018-11-12T12:34:04.837Z,2.80
2018-11-12T12:36:32.284Z,3.00
2018-11-12T12:38:59.816Z,2.73
2018-11-12T12:41:27.220Z,2.70
2018-11-12T12:43:54.621Z,3.70
2018-11-12T12:46:22.080Z,3.27
2018-11-12T12:48:49.563Z,3.70
2018-11-12T12:51:17.189Z,4.10
2018-11-12T12:53:44.696Z,4.30
2018-11-12T12:56:12.573Z,4.30
2018-11-12T12:58:40.087Z,3.93
2018-11-12T13:01:07.509Z,3.67
2018-11-12T13:03:34.984Z,3.93
2018-11-12T13:06:02.438Z,3.90
2018-11-12T13:08:29.847Z,3.93
2018-11-12T13:10:57.319Z,3.23
2018-11-12T13:13:24.797Z,3.77
2018-11-12T13:15:52.245Z,3.57
2018-11-12T13:18:19.669Z,3.77
2018-11-12T13:20:47.163Z,3.40
2018-11-12T13:23:14.625Z,3.23
2018-11-12T13:25:42.067Z,3.00
2018-11-12T13:28:09.760Z,2.67
2018-11-12T13:30:37.235Z,2.90
2018-11-12T13:33:04.778Z,3.03
2018-11-12T13:35:32.446Z,2.27
2018-11-12T13:37:59.962Z,2.20
2018-11-12T13:40:27.542Z,2.60
2018-11-12T13:42:58.115Z,2.70
2018-11-12T13:45:26.045Z,2.50
2018-11-12T13:47:53.800Z,2.70
2018-11-12T13:50:22.420Z,2.30
2018-11-12T13:52:50.251Z,2.83
2018-11-12T13:55:18.751Z,2.77
2018-11-12T13:57:46.217Z,2.63
2018-11-12T14:00:14.970Z,3.20
2018-11-12T14:02:43.020Z,3.40
2018-11-12T14:05:12.238Z,3.57
2018-11-12T14:07:39.671Z,2.87
2018-11-12T14:10:07.748Z,2.07
2018-11-12T14:12:35.192Z,2.60
2018-11-12T14:15:02.662Z,2.43
2018-11-12T14:17:30.120Z,2.63
2018-11-12T14:19:57.573Z,3.00
2018-11-12T14:22:25.017Z,3.20
2018-11-12T14:24:52.460Z,3.40
2018-11-12T14:27:19.967Z,3.47
2018-11-12T14:29:47.837Z,3.50
2018-11-12T14:32:15.252Z,2.90
2018-11-12T14:34:42.675Z,3.50
2018-11-12T14:37:10.107Z,3.13
2018-11-12T14:39:37.542Z,2.90
2018-11-12T14:42:04.980Z,2.83
2018-11-12T14:44:32.402Z,3.63
2018-11-12T14:46:59.920Z,3.13
2018-11-12T14:49:27.348Z,3.53
2018-11-12T14:51:55.053Z,2.93
2018-11-12T14:54:22.522Z,3.43
2018-11-12T14:56:49.968Z,2.93
2018-11-12T14:59:17.407Z,3.30
2018-11-12T15:01:44.869Z,2.97
2018-11-12T15:04:12.259Z,2.80
2018-11-12T15:06:39.708Z,3.50
2018-11-12T15:09:07.937Z,3.00
2018-11-12T15:11:35.375Z,3.50
2018-11-12T15:14:02.852Z,3.37
2018-11-12T15:16:30.349Z,3.30
2018-11-12T15:19:12.354Z,3.60
2018-11-12T15:21:39.843Z,3.27
2018-11-12T15:24:07.338Z,3.70
2018-11-12T15:26:34.784Z,3.83
2018-11-12T15:29:02.266Z,3.13
2018-11-12T15:31:30.473Z,3.10
2018-11-12T15:33:58.099Z,3.73
2018-11-12T15:36:25.629Z,4.07
2018-11-12T15:38:53.097Z,3.67
2018-11-12T15:41:20.718Z,3.73
2018-11-12T15:43:48.176Z,3.60
2018-11-12T15:46:15.880Z,3.30
2018-11-12T15:48:43.299Z,3.13
2018-11-12T15:51:10.750Z,3.60
2018-11-12T15:53:38.485Z,3.43
2018-11-12T15:56:05.903Z,3.67
2018-11-12T15:58:33.322Z,3.77
2018-11-12T16:01:00.824Z,4.00
2018-11-12T16:03:28.250Z,4.57
2018-11-12T16:05:55.734Z,4.63
2018-11-12T16:08:23.191Z,4.50
2018-11-12T16:10:51.540Z,4.70
2018-11-12T16:13:18.959Z,4.83
2018-11-12T16:15:46.379Z,5.10
2018-11-12T16:18:13.865Z,5.40
2018-11-12T16:20:41.310Z,5.30
2018-11-12T16:23:08.787Z,5.67
2018-11-12T16:25:36.235Z,6.17
2018-11-12T16:28:03.705Z,5.43
2018-11-12T16:30:31.144Z,6.30
2018-11-12T16:32:58.605Z,6.80
2018-11-12T16:35:26.111Z,6.30
2018-11-12T16:37:54.016Z,7.40
2018-11-12T16:40:21.568Z,7.53
2018-11-12T16:42:49.330Z,7.50
2018-11-12T16:45:16.934Z,6.77
2018-11-12T16:47:44.622Z,7.70
2018-11-12T16:50:12.968Z,8.00
2018-11-12T16:52:40.471Z,7.67
2018-11-12T16:55:10.272Z,8.27
2018-11-12T16:57:37.732Z,8.87
2018-11-12T17:00:06.164Z,8.93
2018-11-12T17:02:33.605Z,8.13
2018-11-12T17:05:01.033Z,8.90
2018-11-12T17:07:28.458Z,7.63
2018-11-12T17:09:55.998Z,8.87
2018-11-12T17:12:23.625Z,9.77
2018-11-12T17:14:51.107Z,8.03
2018-11-12T17:17:18.623Z,9.50
2018-11-12T17:19:46.679Z,9.23
2018-11-12T17:22:14.190Z,9.33
2018-11-12T17:24:41.728Z,9.90
2018-11-12T17:27:09.220Z,10.27
2018-11-12T17:29:36.803Z,9.67
2018-11-12T17:32:04.474Z,10.00
2018-11-12T17:34:33.445Z,10.20
2018-11-12T17:37:00.895Z,10.60
2018-11-12T17:39:28.417Z,9.77
2018-11-12T17:41:55.944Z,9.57
2018-11-12T17:44:23.411Z,9.27
2018-11-12T17:46:51.355Z,9.93
2018-11-12T17:49:18.819Z,10.07
2018-11-12T17:51:46.643Z,10.17
2018-11-12T17:54:14.281Z,9.33
2018-11-12T17:56:41.893Z,8.60
2018-11-12T17:59:09.400Z,9.20
2018-11-12T18:01:38.214Z,10.70
2018-11-12T18:04:05.714Z,9.87
2018-11-12T18:06:33.546Z,8.57
2018-11-12T18:09:01.079Z,8.40
2018-11-12T18:11:28.512Z,8.17
2018-11-12T18:13:55.969Z,8.10
2018-11-12T18:16:23.473Z,8.17
2018-11-12T18:18:52.772Z,7.43
2018-11-12T18:21:20.332Z,8.70
2018-11-12T18:23:48.017Z,7.80
2018-11-12T18:26:15.643Z,8.17
2018-11-12T18:28:43.095Z,7.43
2018-11-12T18:31:10.697Z,7.40
2018-11-12T18:33:38.038Z,7.70
2018-11-12T18:36:05.504Z,7.23
2018-11-12T18:38:32.995Z,7.20
2018-11-12T18:41:00.487Z,7.80
2018-11-12T18:43:27.927Z,7.60
2018-11-12T18:45:55.320Z,7.33
2018-11-12T18:48:22.807Z,7.47
2018-11-12T18:50:50.233Z,8.00
2018-11-12T18:53:17.724Z,6.83
2018-11-12T18:55:45.152Z,7.07
2018-11-12T18:58:13.022Z,7.63
2018-11-12T19:00:41.827Z,8.73
2018-11-12T19:03:09.449Z,7.60
2018-11-12T19:05:37.130Z,8.03
2018-11-12T19:08:04.841Z,7.37
2018-11-12T19:10:33.273Z,7.73
2018-11-12T19:13:00.895Z,7.57
2018-11-12T19:15:33.115Z,7.87
2018-11-12T19:18:02.395Z,6.77
2018-11-12T19:20:29.839Z,7.03
2018-11-12T19:22:58.206Z,6.67
2018-11-12T19:25:25.784Z,6.63
2018-11-12T19:27:53.850Z,5.63
2018-11-12T19:30:22.622Z,6.60
2018-11-12T19:32:52.747Z,5.83
2018-11-12T19:35:21.610Z,5.47
2018-11-12T19:37:49.373Z,5.73
2018-11-12T19:40:18.119Z,5.50
2018-11-12T19:42:47.283Z,4.73
2018-11-12T19:45:15.056Z,5.20
2018-11-12T19:47:42.941Z,6.20
2018-11-12T19:50:16.002Z,5.00
2018-11-12T19:52:44.603Z,5.40
2018-11-12T19:55:12.232Z,5.33
2018-11-12T19:57:40.076Z,5.00
2018-11-12T20:00:08.667Z,4.90
2018-11-12T20:02:36.087Z,4.57
2018-11-12T20:05:03.584Z,4.83
2018-11-12T20:07:31.394Z,4.67
2018-11-12T20:09:58.951Z,4.53
2018-11-12T20:12:26.408Z,6.40
2018-11-12T20:14:53.863Z,5.53
2018-11-12T20:17:21.473Z,4.63
2018-11-12T20:19:49.094Z,4.43
2018-11-12T20:22:16.617Z,5.03
2018-11-12T20:24:44.044Z,4.90
2018-11-12T20:27:11.508Z,4.90
2018-11-12T20:29:39.024Z,5.87
2018-11-12T20:32:06.879Z,5.03
2018-11-12T20:34:34.394Z,4.60
2018-11-12T20:37:02.052Z,5.20
2018-11-12T20:39:29.522Z,6.03
2018-11-12T20:41:57.024Z,5.47
2018-11-12T20:44:24.482Z,4.93
2018-11-12T20:46:51.929Z,4.97
2018-11-12T20:49:19.417Z,4.57
2018-11-12T20:51:46.851Z,5.33
2018-11-12T20:54:14.543Z,4.73
2018-11-12T20:56:42.002Z,5.57
2018-11-12T20:59:09.470Z,5.30
2018-11-12T21:01:37.280Z,4.73
2018-11-12T21:04:04.730Z,4.37
2018-11-12T21:06:32.182Z,4.93
2018-11-12T21:08:59.757Z,4.47
2018-11-12T21:11:27.747Z,4.93
2018-11-12T21:13:55.129Z,5.47
2018-11-12T21:16:22.608Z,4.60
2018-11-12T21:18:50.094Z,5.33
2018-11-12T21:21:17.542Z,4.80
2018-11-12T21:23:45.009Z,5.77
2018-11-12T21:26:12.491Z,5.37
2018-11-12T21:28:39.933Z,5.87
2018-11-12T21:31:07.438Z,5.70
2018-11-12T21:33:34.965Z,5.13
2018-11-12T21:36:02.404Z,5.27
2018-11-12T21:38:29.864Z,5.17
2018-11-12T21:40:57.317Z,5.10
2018-11-12T21:43:24.987Z,5.60
2018-11-12T21:45:52.456Z,6.63
2018-11-12T21:48:20.098Z,5.80
2018-11-12T21:50:47.542Z,6.27
2018-11-12T21:53:15.008Z,5.47
2018-11-12T21:55:42.496Z,5.63
2018-11-12T21:58:09.977Z,5.33
2018-11-12T22:00:37.501Z,5.00
2018-11-12T22:03:05.075Z,5.53
2018-11-12T22:05:33.106Z,5.50
2018-11-12T22:08:00.898Z,6.00
2018-11-12T22:10:28.333Z,5.73
2018-11-12T22:12:56.041Z,6.03
2018-11-12T22:15:23.512Z,5.70
2018-11-12T22:17:51.117Z,6.20
2018-11-12T22:20:19.823Z,6.17
2018-11-12T22:22:47.322Z,6.17
2018-11-12T22:25:16.117Z,6.43
2018-11-12T22:27:43.890Z,6.53
2018-11-12T22:30:15.693Z,6.00
2018-11-12T22:32:44.213Z,6.07
2018-11-12T22:35:11.660Z,5.73
2018-11-12T22:37:39.281Z,5.97
2018-11-12T22:40:07.264Z,6.77
2018-11-12T22:42:34.732Z,6.67
2018-11-12T22:45:02.174Z,5.97
2018-11-12T22:47:29.631Z,5.87
2018-11-12T22:49:57.107Z,5.63
2018-11-12T22:52:24.543Z,5.70
2018-11-12T22:54:51.981Z,6.30
2018-11-12T22:57:19.513Z,6.23
2018-11-12T22:59:46.993Z,5.83
2018-11-12T23:02:14.409Z,6.10
2018-11-12T23:04:41.820Z,6.33
2018-11-12T23:07:09.392Z,5.67
2018-11-12T23:09:36.824Z,5.97
2018-11-12T23:12:04.505Z,5.80
2018-11-12T23:14:31.971Z,5.63
2018-11-12T23:16:59.628Z,5.47
2018-11-12T23:19:27.088Z,5.70
2018-11-12T23:21:54.450Z,5.60
2018-11-12T23:24:21.906Z,5.17
2018-11-12T23:26:49.331Z,5.57
2018-11-12T23:29:16.741Z,6.50
2018-11-12T23:31:44.169Z,5.93
2018-11-12T23:34:11.624Z,5.70
2018-11-12T23:36:39.023Z,6.10
2018-11-12T23:39:06.797Z,6.20
2018-11-12T23:41:34.270Z,5.90
2018-11-12T23:44:01.696Z,5.77
2018-11-12T23:46:29.116Z,5.37
2018-11-12T23:48:56.576Z,6.20
2018-11-12T23:51:23.981Z,5.50
2018-11-12T23:53:51.406Z,5.83
2018-11-12T23:56:18.840Z,5.83
2018-11-12T23:58:46.265Z,6.80
